Airfield :
LOGIN :

Register | Disclaimer

   EN    FR    IT 

 










Legend :    VFR   Marginal VFR   IFR   Intensive IFR   Very Intensive IFR
Visi :
Ceiling :
>= 8 km
>= 3000ft
5 to 8 km
1000 to 3000 ft
1500m to 5 km
500 to 1000 ft
800 to 1500m
200 to 500 ft
< 800m
< 200 ft
Symbols :   Thunderstorms  Fog  Heavy snow  Heavy precipitations  Wind > 20 kt
SIGMETs :     Misc.  Thunderstorms  Icing  Turbulence  Mountain Waves  Volcanic Ashes






- Airport Elevation : 2776 ft
- IATA code : VLL


LEVD - Valladolid

CURRENT METAR :
  • 271230Z 26008KT 230V290 9999 OVC005 13/11 Q1027

EXPIRED METARs :
  • 271200Z 27008KT 240V300 9999 OVC004 12/11 Q1027
  • 271130Z 27010KT 9999 OVC002 11/11 Q1027
  • 271100Z 27009KT 9000 BCFG BKN001 11/11 Q1027
  • 271054Z 27010KT 9000 BCFG BKN001 11/11 Q1027
  • 271030Z 27009KT 1700 R23/1000U BCFG VV002 10/10 Q1027

TAF AMD TAF LEVD
Valid from the 27 at 11:00 until the 28 at 09:00 UTC


271145Z 2711/2809 27008KT 9999 BKN020 TX16/2715Z TN06/2806Z
PROB40
TEMPO 2711/2720 BKN007
PROB30
TEMPO 2711/2720 3500 BR BKN003
TEMPO 2720/2809 2000 BR BKN004
PROB40
TEMPO 2722/2809 0150 FG VV001



MET'MAP, your aeronautical weather chart ! - Copyright ORBIFLY December 2007 - Disclaimer

ORBIFLY MET'MAP TEAM :

Programming & Development : Alexandra Zaïnal
Concept & original design : Baudouin d'Aumeries
Assistance for programming : Marc-Olivier Méhu
Technical & hardware support : Manuel Goepfert

Contact : metmap@orbifly.com




SOURCES & CREDITS :

   NOAA